createdAt,value
2022-12-18T00:02:12.479Z,-4.17
2022-12-18T00:04:39.039Z,-4.15
2022-12-18T00:07:05.367Z,-4.16
2022-12-18T00:09:39.689Z,-4.16
2022-12-18T00:14:45.191Z,-4.18
2022-12-18T00:17:11.553Z,-4.18
2022-12-18T00:19:37.846Z,-4.18
2022-12-18T00:22:04.310Z,-4.16
2022-12-18T00:24:30.670Z,-4.20
2022-12-18T00:26:58.382Z,-4.23
2022-12-18T00:29:24.802Z,-4.28
2022-12-18T00:31:51.192Z,-4.30
2022-12-18T00:34:17.529Z,-4.30
2022-12-18T00:36:43.838Z,-4.28
2022-12-18T00:39:12.975Z,-4.30
2022-12-18T00:41:58.234Z,-4.31
2022-12-18T00:44:24.560Z,-4.30
2022-12-18T00:46:50.950Z,-4.34
2022-12-18T00:49:19.861Z,-4.38
2022-12-18T00:51:47.020Z,-4.40
2022-12-18T00:54:13.723Z,-4.41
2022-12-18T00:56:48.387Z,-4.40
2022-12-18T00:59:15.795Z,-4.40
2022-12-18T01:01:42.306Z,-4.39
2022-12-18T01:04:09.037Z,-4.43
2022-12-18T01:06:35.468Z,-4.44
2022-12-18T01:09:03.081Z,-4.46
2022-12-18T01:11:29.431Z,-4.50
2022-12-18T01:13:56.309Z,-4.49
2022-12-18T01:16:23.662Z,-4.52
2022-12-18T01:18:53.995Z,-4.57
2022-12-18T01:21:21.167Z,-4.60
2022-12-18T01:23:48.031Z,-4.59
2022-12-18T01:26:17.955Z,-4.58
2022-12-18T01:28:44.977Z,-4.58
2022-12-18T01:31:15.723Z,-4.61
2022-12-18T01:33:42.806Z,-4.63
2022-12-18T01:36:14.993Z,-4.66
2022-12-18T01:38:41.303Z,-4.67
2022-12-18T01:41:07.985Z,-4.66
2022-12-18T01:43:56.117Z,-4.70
2022-12-18T01:46:26.012Z,-4.74
2022-12-18T01:48:57.485Z,-4.78
2022-12-18T01:51:25.056Z,-4.82
2022-12-18T01:53:51.426Z,-4.86
2022-12-18T01:56:19.675Z,-4.92
2022-12-18T01:59:00.730Z,-4.94
2022-12-18T02:01:28.091Z,-4.99
2022-12-18T02:03:54.487Z,-5.03
2022-12-18T02:06:33.083Z,-5.04
2022-12-18T02:09:07.579Z,-5.08
2022-12-18T02:11:43.782Z,-5.12
2022-12-18T02:14:19.586Z,-5.14
2022-12-18T02:16:54.924Z,-5.14
2022-12-18T02:19:42.959Z,-5.16
2022-12-18T02:22:12.263Z,-5.20
2022-12-18T02:25:29.664Z,-5.23
2022-12-18T02:28:00.274Z,-5.26
2022-12-18T02:30:29.943Z,-5.28
2022-12-18T02:32:58.233Z,-5.33
2022-12-18T02:35:28.395Z,-5.33
2022-12-18T02:37:55.481Z,-5.38
2022-12-18T02:40:24.943Z,-5.40
2022-12-18T02:42:51.502Z,-5.40
2022-12-18T02:45:17.903Z,-5.40
2022-12-18T02:47:48.322Z,-5.41
2022-12-18T02:50:26.171Z,-5.38
2022-12-18T02:53:11.019Z,-5.42
2022-12-18T02:55:52.556Z,-5.46
2022-12-18T02:58:35.329Z,-5.47
2022-12-18T03:01:11.196Z,-5.48
2022-12-18T03:03:58.458Z,-5.55
2022-12-18T03:06:29.830Z,-5.57
2022-12-18T03:09:08.247Z,-5.62
2022-12-18T03:12:00.048Z,-5.66
2022-12-18T03:14:31.994Z,-5.67
2022-12-18T03:17:03.458Z,-5.69
2022-12-18T03:19:34.012Z,-5.68
2022-12-18T03:22:04.528Z,-5.68
2022-12-18T03:24:32.540Z,-5.69
2022-12-18T03:27:03.351Z,-5.71
2022-12-18T03:29:36.777Z,-5.73
2022-12-18T03:32:08.582Z,-5.72
2022-12-18T03:34:37.944Z,-5.71
2022-12-18T03:37:05.551Z,-5.68
2022-12-18T03:39:32.013Z,-5.68
2022-12-18T03:42:19.895Z,-5.71
2022-12-18T03:44:54.519Z,-5.76
2022-12-18T03:47:30.466Z,-5.81
2022-12-18T03:50:18.914Z,-5.85
2022-12-18T03:52:53.715Z,-5.88
2022-12-18T03:55:21.843Z,-5.90
2022-12-18T03:57:51.513Z,-5.95
2022-12-18T04:00:19.650Z,-5.97
2022-12-18T04:02:50.982Z,-5.98
2022-12-18T04:05:19.221Z,-6.00
2022-12-18T04:07:48.669Z,-6.01
2022-12-18T04:10:16.683Z,-6.05
2022-12-18T04:12:43.524Z,-6.04
2022-12-18T04:15:11.880Z,-6.06
2022-12-18T04:17:39.983Z,-6.03
2022-12-18T04:20:07.012Z,-6.01
2022-12-18T04:22:33.463Z,-5.99
2022-12-18T04:25:01.491Z,-5.98
2022-12-18T04:27:27.914Z,-5.95
2022-12-18T04:29:55.479Z,-5.95
2022-12-18T04:32:22.933Z,-5.97
2022-12-18T04:34:49.425Z,-5.97
2022-12-18T04:37:16.071Z,-6.01
2022-12-18T04:39:42.473Z,-6.05
2022-12-18T04:42:08.778Z,-6.07
2022-12-18T04:44:35.215Z,-6.09
2022-12-18T04:47:01.507Z,-6.08
2022-12-18T04:49:27.991Z,-6.09
2022-12-18T04:51:54.558Z,-6.11
2022-12-18T04:54:21.563Z,-6.14
2022-12-18T04:56:47.871Z,-6.16
2022-12-18T04:59:14.514Z,-6.16
2022-12-18T05:01:41.020Z,-6.16
2022-12-18T05:04:07.684Z,-6.17
2022-12-18T05:06:34.088Z,-6.17
2022-12-18T05:09:00.453Z,-6.16
2022-12-18T05:11:26.892Z,-6.13
2022-12-18T05:13:55.111Z,-6.15
2022-12-18T05:16:21.496Z,-6.11
2022-12-18T05:18:48.019Z,-6.15
2022-12-18T05:21:14.462Z,-6.16
2022-12-18T05:23:41.345Z,-6.13
2022-12-18T05:26:08.679Z,-6.11
2022-12-18T05:28:36.691Z,-6.13
2022-12-18T05:31:04.831Z,-6.11
2022-12-18T05:33:33.405Z,-6.11
2022-12-18T05:36:06.053Z,-6.13
2022-12-18T05:38:34.395Z,-6.13
2022-12-18T05:41:00.830Z,-6.15
2022-12-18T05:43:28.713Z,-6.15
2022-12-18T05:45:57.013Z,-6.11
2022-12-18T05:48:25.215Z,-6.10
2022-12-18T05:50:53.290Z,-6.10
2022-12-18T05:53:22.293Z,-6.12
2022-12-18T05:55:48.731Z,-6.13
2022-12-18T05:58:17.179Z,-6.13
2022-12-18T06:00:47.197Z,-6.13
2022-12-18T06:03:36.322Z,-6.14
2022-12-18T06:06:05.067Z,-6.15
2022-12-18T06:08:31.678Z,-6.17
2022-12-18T06:10:58.251Z,-6.17
2022-12-18T06:13:24.572Z,-6.14
2022-12-18T06:15:50.905Z,-6.16
2022-12-18T06:18:17.263Z,-6.17
2022-12-18T06:20:44.714Z,-6.20
2022-12-18T06:23:12.732Z,-6.20
2022-12-18T06:25:40.951Z,-6.20
2022-12-18T06:28:08.463Z,-6.20
2022-12-18T06:30:34.953Z,-6.21
2022-12-18T06:33:01.347Z,-6.21
2022-12-18T06:35:27.635Z,-6.28
2022-12-18T06:37:53.966Z,-6.32
2022-12-18T06:40:20.281Z,-6.35
2022-12-18T06:42:46.590Z,-6.35
2022-12-18T06:45:15.851Z,-6.38
2022-12-18T06:47:42.263Z,-6.40
2022-12-18T06:50:08.779Z,-6.41
2022-12-18T06:52:35.170Z,-6.43
2022-12-18T06:55:01.807Z,-6.43
2022-12-18T06:57:28.247Z,-6.43
2022-12-18T06:59:54.626Z,-6.47
2022-12-18T07:02:21.054Z,-6.52
2022-12-18T07:04:47.466Z,-6.52
2022-12-18T07:07:13.797Z,-6.56
2022-12-18T07:09:41.811Z,-6.60
2022-12-18T07:12:08.895Z,-6.61
2022-12-18T07:14:35.248Z,-6.64
2022-12-18T07:17:02.567Z,-6.65
2022-12-18T07:19:29.867Z,-6.65
2022-12-18T07:21:57.235Z,-6.63
2022-12-18T07:24:23.591Z,-6.61
2022-12-18T07:26:49.883Z,-6.60
2022-12-18T07:29:16.461Z,-6.59
2022-12-18T07:31:43.158Z,-6.58
2022-12-18T07:34:14.535Z,-6.54
2022-12-18T07:36:41.307Z,-6.52
2022-12-18T07:39:07.863Z,-6.51
2022-12-18T07:41:34.632Z,-6.54
2022-12-18T07:44:02.990Z,-6.55
2022-12-18T07:46:29.354Z,-6.55
2022-12-18T07:48:55.660Z,-6.58
2022-12-18T07:51:21.983Z,-6.55
2022-12-18T07:53:49.763Z,-6.53
2022-12-18T07:56:27.140Z,-6.52
2022-12-18T07:58:55.566Z,-6.49
2022-12-18T08:01:22.093Z,-6.44
2022-12-18T08:03:48.506Z,-6.37
2022-12-18T08:06:16.244Z,-6.30
2022-12-18T08:08:43.120Z,-6.23
2022-12-18T08:11:09.430Z,-6.16
2022-12-18T08:13:35.935Z,-6.08
2022-12-18T08:16:05.099Z,-5.95
2022-12-18T08:18:33.749Z,-5.84
2022-12-18T08:21:12.211Z,-5.72
2022-12-18T08:23:42.608Z,-5.66
2022-12-18T08:26:11.900Z,-5.46
2022-12-18T08:28:38.614Z,-5.34
2022-12-18T08:31:05.208Z,-5.29
2022-12-18T08:33:32.283Z,-5.27
2022-12-18T08:36:02.337Z,-5.31
2022-12-18T08:38:28.672Z,-5.32
2022-12-18T08:41:06.688Z,-5.30
2022-12-18T08:43:51.762Z,-5.28
2022-12-18T08:46:19.224Z,-5.26
2022-12-18T08:48:46.360Z,-5.21
2022-12-18T08:51:12.935Z,-5.14
2022-12-18T08:53:39.957Z,-5.03
2022-12-18T08:56:06.841Z,-4.91
2022-12-18T08:58:33.174Z,-4.74
2022-12-18T09:01:05.072Z,-4.43
2022-12-18T09:03:31.720Z,-4.29
2022-12-18T09:05:58.096Z,-4.22
2022-12-18T09:08:24.444Z,-4.35
2022-12-18T09:10:52.486Z,-4.40
2022-12-18T09:13:19.417Z,-4.33
2022-12-18T09:15:49.220Z,-4.29
2022-12-18T09:18:17.489Z,-4.24
2022-12-18T09:20:44.155Z,-4.20
2022-12-18T09:23:10.827Z,-4.19
2022-12-18T09:25:37.844Z,-4.15
2022-12-18T09:28:11.246Z,-4.12
2022-12-18T09:30:42.809Z,-4.09
2022-12-18T09:33:10.291Z,-4.07
2022-12-18T09:35:40.830Z,-4.05
2022-12-18T09:38:09.561Z,-4.01
2022-12-18T09:40:40.733Z,-3.92
2022-12-18T09:43:08.466Z,-3.92
2022-12-18T09:45:50.660Z,-3.88
2022-12-18T09:48:24.498Z,-3.84
2022-12-18T09:50:52.655Z,-3.78
2022-12-18T09:53:25.916Z,-3.72
2022-12-18T09:55:54.027Z,-3.66
2022-12-18T09:58:32.519Z,-3.59
2022-12-18T10:00:58.876Z,-3.55
2022-12-18T10:03:25.316Z,-3.50
2022-12-18T10:06:11.976Z,-3.46
2022-12-18T10:08:50.011Z,-3.40
2022-12-18T10:11:41.025Z,-3.35
2022-12-18T10:14:15.279Z,-3.29
2022-12-18T10:16:59.577Z,-3.25
2022-12-18T10:19:40.675Z,-3.18
2022-12-18T10:22:20.123Z,-3.11
2022-12-18T10:25:04.963Z,-3.06
2022-12-18T10:27:32.024Z,-3.04
2022-12-18T10:30:01.249Z,-3.01
2022-12-18T10:32:30.159Z,-2.99
2022-12-18T10:35:00.704Z,-2.95
2022-12-18T10:37:29.909Z,-2.92
2022-12-18T10:40:18.287Z,-2.89
2022-12-18T10:43:03.603Z,-2.85
2022-12-18T10:45:30.156Z,-2.79
2022-12-18T10:47:56.646Z,-2.76
2022-12-18T10:51:09.638Z,-2.73
2022-12-18T10:53:27.555Z,-2.71
2022-12-18T10:55:57.045Z,-2.63
2022-12-18T10:58:38.858Z,-2.59
2022-12-18T11:01:14.805Z,-2.55
2022-12-18T11:03:42.506Z,-2.52
2022-12-18T11:06:12.149Z,-2.48
2022-12-18T11:08:39.183Z,-2.45
2022-12-18T11:11:21.143Z,-2.42
2022-12-18T11:14:04.718Z,-2.37
2022-12-18T11:16:37.232Z,-2.32
2022-12-18T11:19:37.309Z,-2.26
2022-12-18T11:22:21.096Z,-2.23
2022-12-18T11:25:30.856Z,-2.19
2022-12-18T11:28:30.233Z,-2.15
2022-12-18T11:31:21.669Z,-2.10
2022-12-18T11:34:19.604Z,-2.07
2022-12-18T11:36:43.210Z,-2.02
2022-12-18T11:39:24.032Z,-1.98
2022-12-18T11:42:11.544Z,-1.93
2022-12-18T11:44:52.396Z,-1.90
2022-12-18T11:47:34.982Z,-1.87
2022-12-18T11:50:03.451Z,-1.83
2022-12-18T11:52:39.025Z,-1.77
2022-12-18T11:55:11.308Z,-1.74
2022-12-18T11:57:46.353Z,-1.75
2022-12-18T12:00:22.113Z,-1.73
2022-12-18T12:03:07.204Z,-1.70
2022-12-18T12:05:36.508Z,-1.69
2022-12-18T12:08:18.260Z,-1.65
2022-12-18T12:11:07.524Z,-1.66
2022-12-18T12:13:40.239Z,-1.64
2022-12-18T12:16:30.047Z,-1.63
2022-12-18T12:19:23.262Z,-1.61
2022-12-18T12:22:01.451Z,-1.56
2022-12-18T12:24:56.875Z,-1.53
2022-12-18T12:27:35.201Z,-1.50
2022-12-18T12:30:10.345Z,-1.49
2022-12-18T12:32:46.617Z,-1.46
2022-12-18T12:35:43.110Z,-1.45
2022-12-18T12:38:15.698Z,-1.44
2022-12-18T12:40:55.205Z,-1.41
2022-12-18T12:43:40.357Z,-1.41
2022-12-18T12:46:12.190Z,-1.40
2022-12-18T12:48:50.044Z,-1.39
2022-12-18T12:51:23.208Z,-1.38
2022-12-18T12:53:50.931Z,-1.36
2022-12-18T12:56:20.217Z,-1.34
2022-12-18T12:58:56.407Z,-1.31
2022-12-18T13:01:26.848Z,-1.30
2022-12-18T13:04:12.214Z,-1.27
2022-12-18T13:07:05.371Z,-1.25
2022-12-18T13:09:36.793Z,-1.25
2022-12-18T13:12:35.172Z,-1.24
2022-12-18T13:15:41.827Z,-1.21
2022-12-18T13:18:11.170Z,-1.20
2022-12-18T13:20:47.900Z,-1.18
2022-12-18T13:23:25.161Z,-1.17
2022-12-18T13:26:11.245Z,-1.15
2022-12-18T13:28:46.872Z,-1.15
2022-12-18T13:31:14.272Z,-1.14
2022-12-18T13:34:16.949Z,-1.15
2022-12-18T13:36:34.590Z,-1.14
2022-12-18T13:39:26.555Z,-1.14
2022-12-18T13:42:31.377Z,-1.13
2022-12-18T13:44:58.783Z,-1.12
2022-12-18T13:47:38.300Z,-1.13
2022-12-18T13:50:29.739Z,-1.13
2022-12-18T13:53:00.351Z,-1.12
2022-12-18T13:55:26.688Z,-1.13
2022-12-18T13:58:05.376Z,-1.12
2022-12-18T14:00:32.640Z,-1.10
2022-12-18T14:03:00.455Z,-1.11
2022-12-18T14:05:37.121Z,-1.11
2022-12-18T14:08:09.291Z,-1.11
2022-12-18T14:10:49.337Z,-1.09
2022-12-18T14:13:32.982Z,-1.08
2022-12-18T14:16:04.247Z,-1.08
2022-12-18T14:18:34.799Z,-1.08
2022-12-18T14:21:04.659Z,-1.07
2022-12-18T14:23:35.595Z,-1.07
2022-12-18T14:26:06.282Z,-1.09
2022-12-18T14:28:33.078Z,-1.08
2022-12-18T14:30:59.521Z,-1.06
2022-12-18T14:33:28.286Z,-1.06
2022-12-18T14:36:01.611Z,-1.05
2022-12-18T14:38:38.527Z,-1.07
2022-12-18T14:41:12.796Z,-1.07
2022-12-18T14:43:43.737Z,-1.09
2022-12-18T14:46:39.777Z,-1.07
2022-12-18T14:49:30.150Z,-1.08
2022-12-18T14:52:02.254Z,-1.08
2022-12-18T14:54:30.835Z,-1.09
2022-12-18T14:57:18.069Z,-1.10
2022-12-18T14:59:44.451Z,-1.10
2022-12-18T15:02:28.890Z,-1.09
2022-12-18T15:05:02.662Z,-1.10
2022-12-18T15:07:41.823Z,-1.12
2022-12-18T15:10:08.050Z,-1.12
2022-12-18T15:12:37.059Z,-1.12
2022-12-18T15:15:05.621Z,-1.12
2022-12-18T15:17:32.298Z,-1.10
2022-12-18T15:20:10.032Z,-1.09
2022-12-18T15:22:37.240Z,-1.09
2022-12-18T15:25:24.767Z,-1.09
2022-12-18T15:27:56.030Z,-1.09
2022-12-18T15:30:24.706Z,-1.10
2022-12-18T15:32:52.502Z,-1.09
2022-12-18T15:35:21.875Z,-1.10
2022-12-18T15:37:48.800Z,-1.09
2022-12-18T15:40:23.959Z,-1.09
2022-12-18T15:43:13.381Z,-1.10
2022-12-18T15:45:39.824Z,-1.10
2022-12-18T15:48:21.231Z,-1.12
2022-12-18T15:50:49.928Z,-1.11
2022-12-18T15:53:16.254Z,-1.13
2022-12-18T15:56:01.564Z,-1.13
2022-12-18T15:58:27.943Z,-1.13
2022-12-18T16:00:56.606Z,-1.13
2022-12-18T16:03:22.965Z,-1.13
2022-12-18T16:05:49.857Z,-1.11
2022-12-18T16:08:16.176Z,-1.13
2022-12-18T16:10:42.507Z,-1.14
2022-12-18T16:13:16.424Z,-1.12
2022-12-18T16:15:45.751Z,-1.12
2022-12-18T16:18:12.097Z,-1.11
2022-12-18T16:20:39.421Z,-1.12
2022-12-18T16:23:05.764Z,-1.12
2022-12-18T16:25:32.150Z,-1.13
2022-12-18T16:27:58.516Z,-1.10
2022-12-18T16:30:32.716Z,-1.10
2022-12-18T16:33:05.247Z,-1.08
2022-12-18T16:35:31.606Z,-1.09
2022-12-18T16:37:57.926Z,-1.08
2022-12-18T16:40:24.214Z,-1.09
2022-12-18T16:42:50.570Z,-1.08
2022-12-18T16:45:18.256Z,-1.07
2022-12-18T16:47:45.007Z,-1.06
2022-12-18T16:50:12.233Z,-1.07
2022-12-18T16:52:39.059Z,-1.06
2022-12-18T16:55:06.164Z,-1.07
2022-12-18T16:57:32.978Z,-1.07
2022-12-18T17:00:04.651Z,-1.07
2022-12-18T17:02:32.300Z,-1.06
2022-12-18T17:04:59.386Z,-1.07
2022-12-18T17:07:26.698Z,-1.06
2022-12-18T17:09:53.992Z,-1.07
2022-12-18T17:12:21.015Z,-1.05
2022-12-18T17:14:47.442Z,-1.05
2022-12-18T17:17:22.802Z,-1.07
2022-12-18T17:19:50.294Z,-1.05
2022-12-18T17:22:16.608Z,-1.05
2022-12-18T17:24:42.920Z,-1.05
2022-12-18T17:27:09.311Z,-1.03
2022-12-18T17:29:36.014Z,-1.03
2022-12-18T17:32:02.355Z,-1.03
2022-12-18T17:34:29.025Z,-1.02
2022-12-18T17:36:56.543Z,-1.02
2022-12-18T17:39:22.853Z,-1.03
2022-12-18T17:41:49.865Z,-1.02
2022-12-18T17:44:17.050Z,-1.02
2022-12-18T17:46:45.894Z,-1.02
2022-12-18T17:49:12.387Z,-1.01
2022-12-18T17:51:39.472Z,-1.01
2022-12-18T17:54:05.953Z,-1.02
2022-12-18T17:56:32.820Z,-1.00
2022-12-18T17:58:59.253Z,-1.00
2022-12-18T18:01:26.290Z,-1.01
2022-12-18T18:03:55.857Z,-1.00
2022-12-18T18:06:23.303Z,-0.99
2022-12-18T18:08:49.986Z,-0.98
2022-12-18T18:11:51.275Z,-0.97
2022-12-18T18:14:20.243Z,-0.97
2022-12-18T18:16:51.919Z,-0.95
2022-12-18T18:19:21.992Z,-0.94
2022-12-18T18:21:52.064Z,-0.93
2022-12-18T18:24:23.186Z,-0.91
2022-12-18T18:26:49.922Z,-0.89
2022-12-18T18:29:22.057Z,-0.88
2022-12-18T18:31:48.793Z,-0.87
2022-12-18T18:34:17.819Z,-0.87
2022-12-18T18:36:46.039Z,-0.86
2022-12-18T18:39:13.464Z,-0.85
2022-12-18T18:41:39.759Z,-0.84
2022-12-18T18:44:06.878Z,-0.82
2022-12-18T18:46:33.427Z,-0.82
2022-12-18T18:48:59.745Z,-0.81
2022-12-18T18:51:31.467Z,-0.79
2022-12-18T18:54:00.994Z,-0.78
2022-12-18T18:59:13.803Z,-0.72
2022-12-18T19:01:40.337Z,-0.69
2022-12-18T19:04:06.816Z,-0.67
2022-12-18T19:06:33.378Z,-0.65
2022-12-18T19:09:02.289Z,-0.63
2022-12-18T19:11:47.237Z,-0.60
2022-12-18T19:14:15.116Z,-0.59
2022-12-18T19:16:43.084Z,-0.57
2022-12-18T19:19:09.768Z,-0.55
2022-12-18T19:21:38.056Z,-0.51
2022-12-18T19:24:05.536Z,-0.50
2022-12-18T19:26:32.077Z,-0.49
2022-12-18T19:29:03.334Z,-0.48
2022-12-18T19:31:35.141Z,-0.45
2022-12-18T19:34:03.759Z,-0.44
2022-12-18T19:36:31.111Z,-0.42
2022-12-18T19:38:59.460Z,-0.41
2022-12-18T19:41:28.260Z,-0.39
2022-12-18T19:43:57.383Z,-0.37
2022-12-18T19:46:23.999Z,-0.36
2022-12-18T19:48:51.111Z,-0.36
2022-12-18T19:51:21.317Z,-0.36
2022-12-18T19:53:49.293Z,-0.34
2022-12-18T19:56:20.054Z,-0.33
2022-12-18T19:58:47.058Z,-0.34
2022-12-18T20:01:16.668Z,-0.36
2022-12-18T20:03:44.829Z,-0.38
2022-12-18T20:06:26.224Z,-0.40
2022-12-18T20:08:57.986Z,-0.41
2022-12-18T20:11:26.700Z,-0.44
2022-12-18T20:13:53.008Z,-0.44
2022-12-18T20:16:19.390Z,-0.44
2022-12-18T20:18:45.722Z,-0.46
2022-12-18T20:21:14.017Z,-0.47
2022-12-18T20:23:41.368Z,-0.47
2022-12-18T20:26:08.693Z,-0.49
2022-12-18T20:28:35.201Z,-0.50
2022-12-18T20:31:03.990Z,-0.51
2022-12-18T20:33:30.875Z,-0.52
2022-12-18T20:36:02.447Z,-0.52
2022-12-18T20:38:30.574Z,-0.52
2022-12-18T20:40:59.304Z,-0.53
2022-12-18T20:43:25.620Z,-0.55
2022-12-18T20:45:59.747Z,-0.56
2022-12-18T20:48:27.127Z,-0.56
2022-12-18T20:51:08.156Z,-0.58
2022-12-18T20:53:35.375Z,-0.58
2022-12-18T20:56:08.308Z,-0.59
2022-12-18T20:58:35.641Z,-0.60
2022-12-18T21:01:13.161Z,-0.59
2022-12-18T21:03:41.036Z,-0.60
2022-12-18T21:06:08.604Z,-0.61
2022-12-18T21:08:34.947Z,-0.59
2022-12-18T21:11:38.346Z,-0.60
2022-12-18T21:14:09.086Z,-0.60
2022-12-18T21:16:35.817Z,-0.60
2022-12-18T21:19:02.253Z,-0.59
2022-12-18T21:21:28.900Z,-0.58
2022-12-18T21:23:55.271Z,-0.59
2022-12-18T21:26:24.367Z,-0.58
2022-12-18T21:28:56.298Z,-0.58
2022-12-18T21:31:24.955Z,-0.56
2022-12-18T21:33:52.007Z,-0.55
2022-12-18T21:36:26.163Z,-0.53
2022-12-18T21:38:57.124Z,-0.52
2022-12-18T21:41:43.050Z,-0.53
2022-12-18T21:44:14.056Z,-0.51
2022-12-18T21:46:48.950Z,-0.50
2022-12-18T21:49:21.292Z,-0.48
2022-12-18T21:51:49.426Z,-0.46
2022-12-18T21:54:16.406Z,-0.45
2022-12-18T21:56:56.277Z,-0.45
2022-12-18T21:59:25.485Z,-0.43
2022-12-18T22:01:52.990Z,-0.42
2022-12-18T22:04:20.506Z,-0.41
2022-12-18T22:06:48.202Z,-0.41
2022-12-18T22:09:20.066Z,-0.40
2022-12-18T22:11:47.273Z,-0.40
2022-12-18T22:14:14.868Z,-0.39
2022-12-18T22:16:41.916Z,-0.39
2022-12-18T22:19:10.018Z,-0.37
2022-12-18T22:21:39.623Z,-0.36
2022-12-18T22:24:10.008Z,-0.35
2022-12-18T22:26:40.200Z,-0.34
2022-12-18T22:29:26.676Z,-0.33
2022-12-18T22:31:53.008Z,-0.31
2022-12-18T22:34:22.838Z,-0.31
2022-12-18T22:36:49.827Z,-0.30
2022-12-18T22:39:21.734Z,-0.30
2022-12-18T22:41:48.411Z,-0.28
2022-12-18T22:44:15.208Z,-0.28
2022-12-18T22:46:47.733Z,-0.29
2022-12-18T22:49:21.831Z,-0.28
2022-12-18T22:51:48.849Z,-0.26
2022-12-18T22:54:15.773Z,-0.24
2022-12-18T22:56:42.866Z,-0.22
2022-12-18T22:59:16.758Z,-0.22
2022-12-18T23:01:44.010Z,-0.20
2022-12-18T23:04:13.103Z,-0.20
2022-12-18T23:06:40.578Z,-0.19
2022-12-18T23:09:07.722Z,-0.18
2022-12-18T23:11:34.035Z,-0.17
2022-12-18T23:14:00.566Z,-0.17
2022-12-18T23:16:28.006Z,-0.16
2022-12-18T23:18:55.390Z,-0.15
2022-12-18T23:21:23.163Z,-0.13
2022-12-18T23:23:50.893Z,-0.12
2022-12-18T23:26:20.204Z,-0.11
2022-12-18T23:28:47.093Z,-0.11
2022-12-18T23:31:14.870Z,-0.10
2022-12-18T23:33:43.491Z,-0.09
2022-12-18T23:36:11.936Z,-0.06
2022-12-18T23:38:39.537Z,-0.05
2022-12-18T23:41:11.164Z,-0.05
2022-12-18T23:43:38.527Z,-0.04
2022-12-18T23:46:16.611Z,-0.02
2022-12-18T23:48:42.939Z,-0.01
2022-12-18T23:51:11.538Z,-0.01
2022-12-18T23:53:37.980Z,0.00
2022-12-18T23:56:08.390Z,0.01
2022-12-18T23:58:35.819Z,0.02
